createdAt,value
2023-01-30T00:01:36.517Z,12.82
2023-01-30T00:04:03.559Z,12.48
2023-01-30T00:06:32.542Z,11.55
2023-01-30T00:08:59.580Z,13.60
2023-01-30T00:11:28.746Z,15.13
2023-01-30T00:13:57.590Z,23.33
2023-01-30T00:16:25.230Z,10.43
2023-01-30T00:18:52.186Z,11.73
2023-01-30T00:21:19.537Z,11.55
2023-01-30T00:23:48.016Z,20.58
2023-01-30T00:26:15.278Z,17.88
2023-01-30T00:28:42.279Z,13.93
2023-01-30T00:31:10.668Z,13.40
2023-01-30T00:33:39.509Z,14.88
2023-01-30T00:38:34.167Z,12.07
2023-01-30T00:41:03.026Z,13.65
2023-01-30T00:43:48.825Z,12.10
2023-01-30T00:46:45.687Z,12.73
2023-01-30T00:49:13.041Z,9.90
2023-01-30T00:51:40.287Z,13.05
2023-01-30T00:54:07.419Z,13.02
2023-01-30T00:56:36.094Z,11.63
2023-01-30T00:59:03.331Z,10.27
2023-01-30T01:01:30.560Z,13.63
2023-01-30T01:03:57.578Z,10.85
2023-01-30T01:06:24.929Z,10.27
2023-01-30T01:08:51.861Z,13.07
2023-01-30T01:11:24.575Z,12.60
2023-01-30T01:13:55.520Z,14.73
2023-01-30T01:16:23.972Z,14.73
2023-01-30T01:18:51.555Z,12.75
2023-01-30T01:21:20.589Z,13.75
2023-01-30T01:23:50.162Z,11.25
2023-01-30T01:26:17.351Z,14.13
2023-01-30T01:28:44.597Z,13.25
2023-01-30T01:31:15.209Z,14.38
2023-01-30T01:33:42.614Z,14.85
2023-01-30T01:36:10.064Z,11.77
2023-01-30T01:38:37.677Z,12.27
2023-01-30T01:41:06.405Z,12.10
2023-01-30T01:43:34.965Z,11.57
2023-01-30T01:46:08.212Z,10.23
2023-01-30T01:48:40.329Z,15.45
2023-01-30T01:51:13.082Z,16.70
2023-01-30T01:53:44.026Z,15.73
2023-01-30T01:56:14.771Z,13.18
2023-01-30T01:58:46.006Z,14.20
2023-01-30T02:01:13.369Z,11.50
2023-01-30T02:03:45.404Z,11.50
2023-01-30T02:06:16.255Z,11.73
2023-01-30T02:08:47.785Z,14.55
2023-01-30T02:11:21.417Z,12.27
2023-01-30T02:13:50.738Z,10.40
2023-01-30T02:16:17.896Z,12.27
2023-01-30T02:18:47.678Z,11.35
2023-01-30T02:21:44.570Z,11.23
2023-01-30T02:24:42.855Z,11.43
2023-01-30T02:27:30.511Z,10.93
2023-01-30T02:30:20.916Z,11.98
2023-01-30T02:33:00.115Z,10.30
2023-01-30T02:35:37.857Z,14.68
2023-01-30T02:38:19.675Z,10.23
2023-01-30T02:40:57.767Z,9.75
2023-01-30T02:43:31.553Z,11.68
2023-01-30T02:46:05.593Z,10.30
2023-01-30T02:48:39.990Z,10.40
2023-01-30T02:51:11.577Z,15.25
2023-01-30T02:53:39.270Z,10.80
2023-01-30T02:56:07.015Z,9.88
2023-01-30T02:58:39.886Z,10.63
2023-01-30T03:01:35.500Z,13.05
2023-01-30T03:04:31.208Z,11.27
2023-01-30T03:07:22.669Z,10.02
2023-01-30T03:10:01.261Z,9.30
2023-01-30T03:12:41.262Z,13.55
2023-01-30T03:15:13.939Z,9.70
2023-01-30T03:17:44.033Z,10.32
2023-01-30T03:20:16.905Z,8.43
2023-01-30T03:22:44.059Z,10.90
2023-01-30T03:25:16.444Z,9.98
2023-01-30T03:27:44.960Z,10.80
2023-01-30T03:30:13.062Z,13.88
2023-01-30T03:32:40.003Z,14.05
2023-01-30T03:35:07.689Z,10.95
2023-01-30T03:37:36.257Z,11.55
2023-01-30T03:40:04.485Z,11.35
2023-01-30T03:42:31.794Z,12.25
2023-01-30T03:44:59.061Z,10.27
2023-01-30T03:47:26.031Z,11.95
2023-01-30T03:49:53.186Z,10.55
2023-01-30T03:52:20.349Z,10.35
2023-01-30T03:54:48.923Z,9.63
2023-01-30T03:57:15.953Z,11.53
2023-01-30T03:59:43.800Z,11.10
2023-01-30T04:02:11.162Z,10.95
2023-01-30T04:04:38.402Z,13.32
2023-01-30T04:07:05.293Z,12.80
2023-01-30T04:09:32.694Z,11.40
2023-01-30T04:12:00.927Z,13.43
2023-01-30T04:14:28.265Z,14.13
2023-01-30T04:16:56.230Z,14.10
2023-01-30T04:19:24.446Z,13.02
2023-01-30T04:21:51.744Z,12.50
2023-01-30T04:24:18.871Z,12.52
2023-01-30T04:26:46.037Z,13.70
2023-01-30T04:29:14.713Z,14.25
2023-01-30T04:31:41.646Z,13.40
2023-01-30T04:34:11.119Z,13.13
2023-01-30T04:39:05.129Z,14.82
2023-01-30T04:41:32.076Z,13.45
2023-01-30T04:43:59.355Z,13.95
2023-01-30T04:46:27.675Z,16.23
2023-01-30T04:48:54.942Z,13.70
2023-01-30T04:51:21.947Z,15.15
2023-01-30T04:53:49.499Z,14.65
2023-01-30T04:56:17.852Z,13.63
2023-01-30T04:58:45.105Z,13.93
2023-01-30T05:01:13.764Z,15.50
2023-01-30T05:03:42.902Z,17.55
2023-01-30T05:06:09.810Z,14.68
2023-01-30T05:08:37.261Z,16.35
2023-01-30T05:11:04.503Z,21.02
2023-01-30T05:13:31.630Z,12.15
2023-01-30T05:15:58.582Z,15.85
2023-01-30T05:18:25.851Z,13.90
2023-01-30T05:20:54.155Z,16.95
2023-01-30T05:23:21.384Z,16.17
2023-01-30T05:25:48.291Z,16.13
2023-01-30T05:28:15.600Z,14.93
2023-01-30T05:30:42.485Z,18.67
2023-01-30T05:33:09.689Z,18.35
2023-01-30T05:35:36.733Z,16.83
2023-01-30T05:38:05.361Z,17.00
2023-01-30T05:40:32.308Z,13.98
2023-01-30T05:42:59.883Z,15.80
2023-01-30T05:45:26.754Z,13.63
2023-01-30T05:47:58.478Z,20.48
2023-01-30T05:50:27.549Z,14.43
2023-01-30T05:52:54.693Z,14.77
2023-01-30T05:55:23.202Z,15.48
2023-01-30T05:57:50.448Z,13.10
2023-01-30T06:00:18.474Z,26.67
2023-01-30T06:02:46.029Z,19.57
2023-01-30T06:05:13.045Z,15.73
2023-01-30T06:07:40.430Z,15.75
2023-01-30T06:10:08.104Z,17.60
2023-01-30T06:12:36.577Z,18.40
2023-01-30T06:15:03.574Z,16.73
2023-01-30T06:17:30.883Z,17.30
2023-01-30T06:19:58.023Z,23.40
2023-01-30T06:22:25.326Z,12.90
2023-01-30T06:24:52.205Z,21.30
2023-01-30T06:27:19.496Z,16.90
2023-01-30T06:29:47.790Z,20.17
2023-01-30T06:32:15.114Z,19.38
2023-01-30T06:34:42.321Z,17.80
2023-01-30T06:37:09.694Z,17.33
2023-01-30T06:39:36.629Z,17.45
2023-01-30T06:42:04.237Z,15.38
2023-01-30T06:44:31.247Z,14.88
2023-01-30T06:46:59.900Z,17.70
2023-01-30T06:49:26.847Z,15.25
2023-01-30T06:51:53.965Z,19.08
2023-01-30T06:54:20.889Z,17.63
2023-01-30T06:56:49.775Z,20.77
2023-01-30T06:59:16.788Z,14.18
2023-01-30T07:01:44.025Z,16.58
2023-01-30T07:04:12.668Z,19.02
2023-01-30T07:06:40.303Z,16.33
2023-01-30T07:09:07.177Z,19.48
2023-01-30T07:11:34.429Z,16.60
2023-01-30T07:14:01.433Z,19.17
2023-01-30T07:16:29.536Z,17.50
2023-01-30T07:18:59.735Z,20.52
2023-01-30T07:21:28.349Z,17.13
2023-01-30T07:23:55.745Z,20.45
2023-01-30T07:26:23.798Z,15.80
2023-01-30T07:28:50.836Z,17.10
2023-01-30T07:31:18.104Z,16.58
2023-01-30T07:33:45.058Z,15.32
2023-01-30T07:36:12.341Z,19.52
2023-01-30T07:38:40.933Z,24.15
2023-01-30T07:41:08.165Z,17.55
2023-01-30T07:43:35.563Z,17.42
2023-01-30T07:46:04.016Z,16.25
2023-01-30T07:48:30.973Z,23.20
2023-01-30T07:50:58.069Z,16.33
2023-01-30T07:53:24.976Z,20.20
2023-01-30T07:55:53.646Z,17.27
2023-01-30T07:58:20.522Z,15.07
2023-01-30T08:00:47.861Z,17.05
2023-01-30T08:03:16.845Z,16.27
2023-01-30T08:08:14.417Z,15.85
2023-01-30T08:10:42.009Z,17.05
2023-01-30T08:13:10.393Z,18.17
2023-01-30T08:15:37.724Z,17.02
2023-01-30T08:18:04.739Z,17.77
2023-01-30T08:20:32.012Z,25.73
2023-01-30T08:22:59.714Z,18.73
2023-01-30T08:25:27.046Z,18.27
2023-01-30T08:27:54.466Z,16.15
2023-01-30T08:30:23.272Z,16.10
2023-01-30T08:32:50.268Z,15.02
2023-01-30T08:35:18.100Z,17.08
2023-01-30T08:37:45.223Z,17.52
2023-01-30T08:40:13.490Z,15.35
2023-01-30T08:42:40.789Z,13.57
2023-01-30T08:45:08.814Z,14.68
2023-01-30T08:47:37.150Z,13.80
2023-01-30T08:50:05.247Z,16.65
2023-01-30T08:52:32.575Z,16.20
2023-01-30T08:54:59.747Z,16.63
2023-01-30T08:57:26.740Z,15.82
2023-01-30T08:59:53.994Z,15.32
2023-01-30T09:02:21.108Z,17.85
2023-01-30T09:04:50.024Z,18.90
2023-01-30T09:07:16.960Z,13.85
2023-01-30T09:09:44.131Z,11.55
2023-01-30T09:12:11.164Z,19.20
2023-01-30T09:14:38.398Z,13.75
2023-01-30T09:17:05.273Z,15.35
2023-01-30T09:19:32.828Z,16.85
2023-01-30T09:22:01.201Z,13.65
2023-01-30T09:24:28.740Z,15.38
2023-01-30T09:26:59.984Z,14.57
2023-01-30T09:29:27.650Z,16.13
2023-01-30T09:31:56.563Z,17.33
2023-01-30T09:34:27.669Z,12.65
2023-01-30T09:36:54.736Z,18.15
2023-01-30T09:39:23.474Z,18.35
2023-01-30T09:42:07.717Z,14.20
2023-01-30T09:45:01.737Z,12.85
2023-01-30T09:47:39.451Z,14.75
2023-01-30T09:50:23.830Z,20.17
2023-01-30T09:52:57.963Z,18.90
2023-01-30T09:55:29.355Z,18.80
2023-01-30T09:57:58.615Z,20.70
2023-01-30T10:00:32.381Z,14.63
2023-01-30T10:03:06.664Z,13.13
2023-01-30T10:05:40.735Z,12.85
2023-01-30T10:08:24.153Z,17.40
2023-01-30T10:11:10.183Z,13.77
2023-01-30T10:14:04.726Z,18.58
2023-01-30T10:16:37.522Z,13.07
2023-01-30T10:19:34.885Z,13.25
2023-01-30T10:22:10.917Z,12.55
2023-01-30T10:24:50.900Z,13.60
2023-01-30T10:27:21.331Z,15.45
2023-01-30T10:29:53.153Z,23.60
2023-01-30T10:32:28.987Z,12.10
2023-01-30T10:35:00.350Z,13.35
2023-01-30T10:37:32.423Z,14.20
2023-01-30T10:40:12.923Z,14.75
2023-01-30T10:42:48.036Z,24.20
2023-01-30T10:45:19.786Z,11.52
2023-01-30T10:47:59.683Z,16.55
2023-01-30T10:50:34.565Z,13.80
2023-01-30T10:53:10.012Z,14.02
2023-01-30T10:55:45.375Z,12.45
2023-01-30T10:58:26.413Z,14.65
2023-01-30T11:01:00.245Z,12.75
2023-01-30T11:03:36.631Z,11.25
2023-01-30T11:06:07.538Z,14.93
2023-01-30T11:08:36.101Z,11.32
2023-01-30T11:11:24.575Z,15.00
2023-01-30T11:14:01.413Z,11.05
2023-01-30T11:16:28.401Z,11.88
2023-01-30T11:21:51.585Z,10.73
2023-01-30T11:24:20.712Z,9.13
2023-01-30T11:26:48.769Z,11.85
2023-01-30T11:29:28.767Z,8.10
2023-01-30T11:31:56.785Z,11.23
2023-01-30T11:34:25.487Z,11.65
2023-01-30T11:36:52.735Z,11.43
2023-01-30T11:39:23.473Z,11.55
2023-01-30T11:41:58.991Z,9.48
2023-01-30T11:44:29.489Z,15.90
2023-01-30T11:46:59.374Z,14.07
2023-01-30T11:49:46.543Z,12.68
2023-01-30T11:52:18.001Z,11.98
2023-01-30T11:54:46.365Z,13.77
2023-01-30T11:57:15.158Z,17.38
2023-01-30T12:02:18.248Z,13.93
2023-01-30T12:04:47.185Z,14.43
2023-01-30T12:07:20.392Z,13.02
2023-01-30T12:09:50.360Z,13.30
2023-01-30T12:12:32.859Z,12.73
2023-01-30T12:15:20.177Z,16.38
2023-01-30T12:17:52.641Z,13.02
2023-01-30T12:20:28.539Z,19.15
2023-01-30T12:23:08.475Z,11.90
2023-01-30T12:25:41.587Z,11.02
2023-01-30T12:28:15.269Z,12.98
2023-01-30T12:30:49.381Z,11.20
2023-01-30T12:35:57.079Z,12.07
2023-01-30T12:38:55.714Z,12.57
2023-01-30T12:41:34.849Z,13.40
2023-01-30T12:44:38.430Z,19.98
2023-01-30T12:47:24.992Z,11.88
2023-01-30T12:50:25.538Z,12.75
2023-01-30T12:53:16.814Z,11.32
2023-01-30T12:55:52.967Z,10.52
2023-01-30T12:58:25.092Z,9.13
2023-01-30T13:01:04.562Z,20.65
2023-01-30T13:03:41.931Z,13.68
2023-01-30T13:06:24.204Z,17.30
2023-01-30T13:09:02.686Z,14.00
2023-01-30T13:11:48.312Z,13.75
2023-01-30T13:14:27.305Z,11.07
2023-01-30T13:17:14.371Z,10.90
2023-01-30T13:19:49.517Z,11.65
2023-01-30T13:22:23.599Z,11.45
2023-01-30T13:25:00.809Z,9.88
2023-01-30T13:27:29.445Z,10.60
2023-01-30T13:29:59.573Z,11.65
2023-01-30T13:32:35.729Z,20.25
2023-01-30T13:35:09.769Z,10.00
2023-01-30T13:37:38.150Z,18.92
2023-01-30T13:40:16.978Z,21.63
2023-01-30T13:42:51.161Z,21.95
2023-01-30T13:45:22.134Z,15.77
2023-01-30T13:48:03.602Z,21.05
2023-01-30T13:50:50.548Z,15.80
2023-01-30T13:53:24.808Z,12.27
2023-01-30T13:55:57.440Z,13.82
2023-01-30T13:58:44.144Z,13.07
2023-01-30T14:01:13.180Z,14.07
2023-01-30T14:03:40.372Z,16.02
2023-01-30T14:06:32.445Z,18.65
2023-01-30T14:09:03.312Z,13.55
2023-01-30T14:11:37.938Z,14.98
2023-01-30T14:14:25.162Z,19.05
2023-01-30T14:16:54.792Z,12.02
2023-01-30T14:19:33.706Z,13.23
2023-01-30T14:22:05.475Z,13.18
2023-01-30T14:24:32.440Z,11.68
2023-01-30T14:27:04.888Z,16.15
2023-01-30T14:29:51.398Z,13.73
2023-01-30T14:32:51.455Z,11.38
2023-01-30T14:35:26.239Z,16.58
2023-01-30T14:38:13.517Z,17.15
2023-01-30T14:41:17.071Z,13.38
2023-01-30T14:43:52.830Z,11.07
2023-01-30T14:46:41.383Z,15.00
2023-01-30T14:49:27.158Z,10.40
2023-01-30T14:51:56.245Z,9.85
2023-01-30T14:54:42.121Z,30.23
2023-01-30T14:57:22.871Z,13.30
2023-01-30T15:00:13.390Z,13.05
2023-01-30T15:02:44.312Z,16.30
2023-01-30T15:05:15.324Z,19.98
2023-01-30T15:07:45.702Z,20.33
2023-01-30T15:10:23.721Z,15.50
2023-01-30T15:13:18.879Z,14.73
2023-01-30T15:15:57.590Z,12.50
2023-01-30T15:18:37.609Z,16.83
2023-01-30T15:21:23.755Z,15.88
2023-01-30T15:24:12.544Z,15.85
2023-01-30T15:26:51.407Z,12.32
2023-01-30T15:29:56.783Z,10.82
2023-01-30T15:32:25.654Z,23.02
2023-01-30T15:34:54.302Z,17.00
2023-01-30T15:37:33.237Z,17.73
2023-01-30T15:40:21.984Z,17.17
2023-01-30T15:42:55.897Z,15.70
2023-01-30T15:45:33.043Z,12.10
2023-01-30T15:48:17.802Z,13.07
2023-01-30T15:50:49.114Z,17.98
2023-01-30T15:53:17.265Z,11.20
2023-01-30T15:55:46.390Z,15.68
2023-01-30T15:58:17.948Z,18.20
2023-01-30T16:00:48.182Z,15.48
2023-01-30T16:03:20.465Z,11.77
2023-01-30T16:05:48.565Z,12.55
2023-01-30T16:08:22.504Z,13.75
2023-01-30T16:10:52.694Z,14.98
2023-01-30T16:13:23.822Z,17.25
2023-01-30T16:15:55.376Z,13.90
2023-01-30T16:18:29.205Z,17.70
2023-01-30T16:21:02.508Z,16.63
2023-01-30T16:23:35.302Z,23.60
2023-01-30T16:26:04.248Z,22.20
2023-01-30T16:31:02.695Z,15.40
2023-01-30T16:33:35.916Z,17.85
2023-01-30T16:36:04.360Z,19.52
2023-01-30T16:38:37.265Z,19.80
2023-01-30T16:41:05.375Z,17.30
2023-01-30T16:43:34.488Z,15.90
2023-01-30T16:46:45.190Z,15.02
2023-01-30T16:49:18.346Z,14.95
2023-01-30T16:51:46.266Z,16.73
2023-01-30T16:54:21.329Z,15.77
2023-01-30T16:56:52.425Z,14.73
2023-01-30T16:59:28.684Z,17.58
2023-01-30T17:01:57.135Z,15.35
2023-01-30T17:04:27.859Z,17.88
2023-01-30T17:06:57.049Z,20.20
2023-01-30T17:09:41.679Z,20.95
2023-01-30T17:12:42.891Z,14.93
2023-01-30T17:15:31.019Z,17.05
2023-01-30T17:17:58.512Z,22.35
2023-01-30T17:20:33.410Z,19.52
2023-01-30T17:23:05.772Z,21.30
2023-01-30T17:25:38.158Z,15.50
2023-01-30T17:28:06.788Z,22.67
2023-01-30T17:30:35.694Z,18.77
2023-01-30T17:33:03.166Z,14.50
2023-01-30T17:35:30.409Z,18.77
2023-01-30T17:38:05.108Z,28.40
2023-01-30T17:40:34.750Z,18.17
2023-01-30T17:43:01.793Z,16.85
2023-01-30T17:45:29.907Z,12.88
2023-01-30T17:47:58.182Z,12.88
2023-01-30T17:50:25.661Z,14.52
2023-01-30T17:52:52.564Z,15.13
2023-01-30T17:55:21.273Z,18.75
2023-01-30T17:57:49.151Z,15.25
2023-01-30T18:00:19.477Z,13.82
2023-01-30T18:02:47.063Z,18.88
2023-01-30T18:05:15.957Z,15.45
2023-01-30T18:07:42.996Z,15.88
2023-01-30T18:10:14.480Z,16.50
2023-01-30T18:12:41.584Z,15.13
2023-01-30T18:15:12.128Z,18.73
2023-01-30T18:17:44.305Z,15.25
2023-01-30T18:20:16.525Z,12.70
2023-01-30T18:22:43.822Z,14.57
2023-01-30T18:25:13.452Z,15.40
2023-01-30T18:27:41.260Z,14.55
2023-01-30T18:30:09.702Z,20.83
2023-01-30T18:32:40.624Z,15.63
2023-01-30T18:35:15.619Z,13.73
2023-01-30T18:37:43.994Z,15.70
2023-01-30T18:42:42.699Z,18.52
2023-01-30T18:45:10.261Z,17.23
2023-01-30T18:47:37.239Z,18.17
2023-01-30T18:50:05.740Z,16.40
2023-01-30T18:52:34.011Z,13.53
2023-01-30T18:55:01.275Z,13.82
2023-01-30T18:57:28.175Z,17.75
2023-01-30T18:59:55.354Z,17.65
2023-01-30T19:02:22.259Z,15.02
2023-01-30T19:04:49.481Z,13.75
2023-01-30T19:07:16.435Z,15.95
2023-01-30T19:09:45.080Z,20.00
2023-01-30T19:12:30.633Z,15.60
2023-01-30T19:14:57.811Z,13.65
2023-01-30T19:17:24.842Z,15.65
2023-01-30T19:19:51.968Z,22.33
2023-01-30T19:22:18.978Z,17.52
2023-01-30T19:24:47.438Z,16.30
2023-01-30T19:29:43.440Z,13.90
2023-01-30T19:32:10.437Z,13.82
2023-01-30T19:34:38.524Z,15.75
2023-01-30T19:37:05.905Z,18.95
2023-01-30T19:39:33.012Z,16.55
2023-01-30T19:42:01.566Z,17.27
2023-01-30T19:44:28.954Z,19.52
2023-01-30T19:46:56.039Z,16.85
2023-01-30T19:49:23.249Z,13.32
2023-01-30T19:51:50.091Z,15.60
2023-01-30T19:54:18.743Z,14.80
2023-01-30T19:56:48.323Z,16.42
2023-01-30T19:59:17.160Z,17.77
2023-01-30T20:01:44.180Z,20.33
2023-01-30T20:04:11.596Z,14.90
2023-01-30T20:06:42.844Z,19.17
2023-01-30T20:09:11.386Z,18.77
2023-01-30T20:11:39.724Z,20.05
2023-01-30T20:14:07.578Z,14.40
2023-01-30T20:16:36.606Z,15.10
2023-01-30T20:19:06.178Z,14.82
2023-01-30T20:21:33.650Z,17.25
2023-01-30T20:24:01.779Z,16.33
2023-01-30T20:26:30.684Z,13.20
2023-01-30T20:31:27.692Z,17.55
2023-01-30T20:33:57.826Z,15.88
2023-01-30T20:36:26.877Z,16.73
2023-01-30T20:38:55.604Z,16.35
2023-01-30T20:41:24.321Z,15.82
2023-01-30T20:43:53.993Z,13.90
2023-01-30T20:46:25.500Z,18.35
2023-01-30T20:48:56.394Z,14.85
2023-01-30T20:51:24.965Z,15.63
2023-01-30T20:53:53.821Z,16.33
2023-01-30T20:56:22.121Z,16.10
2023-01-30T20:58:49.408Z,14.95
2023-01-30T21:01:18.840Z,18.75
2023-01-30T21:03:50.707Z,13.80
2023-01-30T21:06:41.363Z,19.55
2023-01-30T21:09:11.130Z,16.05
2023-01-30T21:11:38.520Z,17.10
2023-01-30T21:14:05.862Z,16.88
2023-01-30T21:16:35.062Z,19.10
2023-01-30T21:19:06.000Z,17.85
2023-01-30T21:21:37.092Z,18.70
2023-01-30T21:24:07.784Z,17.23
2023-01-30T21:26:37.040Z,22.48
2023-01-30T21:29:06.775Z,17.75
2023-01-30T21:31:35.883Z,19.38
2023-01-30T21:34:03.750Z,15.90
2023-01-30T21:36:30.785Z,17.63
2023-01-30T21:39:17.925Z,14.93
2023-01-30T21:41:45.779Z,20.25
2023-01-30T21:44:13.655Z,19.20
2023-01-30T21:46:42.221Z,17.10
2023-01-30T21:49:09.933Z,18.73
2023-01-30T21:51:37.814Z,16.38
2023-01-30T21:54:06.395Z,18.65
2023-01-30T21:56:33.402Z,18.88
2023-01-30T21:59:04.194Z,18.08
2023-01-30T22:01:31.943Z,19.73
2023-01-30T22:04:00.421Z,17.55
2023-01-30T22:06:27.513Z,18.73
2023-01-30T22:08:55.496Z,17.83
2023-01-30T22:11:23.977Z,23.65
2023-01-30T22:13:51.895Z,18.98
2023-01-30T22:16:21.171Z,21.20
2023-01-30T22:18:53.150Z,21.25
2023-01-30T22:21:21.558Z,27.83
2023-01-30T22:23:51.022Z,20.27
2023-01-30T22:28:47.639Z,25.00
2023-01-30T22:31:16.556Z,23.65
2023-01-30T22:36:13.666Z,22.20
2023-01-30T22:38:43.277Z,24.70
2023-01-30T22:41:14.627Z,23.70
2023-01-30T22:43:45.392Z,22.85
2023-01-30T22:46:15.625Z,22.88
2023-01-30T22:48:43.556Z,21.77
2023-01-30T22:51:14.173Z,22.95
2023-01-30T22:53:42.951Z,27.17
2023-01-30T22:56:12.011Z,26.45
2023-01-30T22:58:39.476Z,27.13
2023-01-30T23:01:08.059Z,27.90
2023-01-30T23:03:36.984Z,34.10
2023-01-30T23:06:06.199Z,25.23
2023-01-30T23:08:36.090Z,37.28
2023-01-30T23:11:07.181Z,22.40
2023-01-30T23:13:34.718Z,25.58
2023-01-30T23:16:02.286Z,30.55
2023-01-30T23:18:47.859Z,29.80
2023-01-30T23:21:16.824Z,27.95
2023-01-30T23:26:11.644Z,27.35
2023-01-30T23:28:39.081Z,31.58
2023-01-30T23:31:08.248Z,39.58
2023-01-30T23:33:36.455Z,32.92
2023-01-30T23:36:04.515Z,34.83
2023-01-30T23:38:33.262Z,35.47
2023-01-30T23:41:11.598Z,43.42
2023-01-30T23:43:40.440Z,32.90
2023-01-30T23:46:12.551Z,31.52
2023-01-30T23:48:39.896Z,33.15
2023-01-30T23:51:06.921Z,31.52
2023-01-30T23:53:36.299Z,36.45
2023-01-30T23:56:03.802Z,32.08
2023-01-30T23:58:30.939Z,35.20
